Time;durP1;ratioP1;P1;durP2;ratioP2;P2;SDS_P1;SDS_P2;PMS_P1;PMS_P2;Temp;Humidity;BMP_temperature;BMP_pressure;BME280_temperature;BME280_humidity;BME280_pressure;Samples;Min_cycle;Max_cycle;Signal;HPM_P1;HPM_P2
2023/08/31 00:00:00;;;;;;;3.17;0.57;;;;;;;20.77;49.29;100830.53;16114692;19;130924;-55
2023/08/31 00:05:24;;;;;;;6.82;0.80;;;;;;;20.75;49.33;100836.34;16111110;19;130796;-52
2023/08/31 00:10:54;;;;;;;1.90;0.63;;;;;;;20.74;49.56;100834.63;16119548;19;130091;-54
2023/08/31 00:16:16;;;;;;;1.90;0.68;;;;;;;20.74;49.48;100831.03;16116642;19;131266;-54
2023/08/31 00:21:38;;;;;;;3.67;0.77;;;;;;;20.72;49.65;100820.19;16118891;19;129307;-56
2023/08/31 00:27:01;;;;;;;2.33;0.80;;;;;;;20.72;49.58;100827.66;16113878;19;129881;-57
2023/08/31 00:32:23;;;;;;;1.80;0.57;;;;;;;20.70;49.44;100824.31;16120553;19;130031;-54
2023/08/31 00:37:45;;;;;;;3.45;0.90;;;;;;;20.70;49.25;100818.75;16119744;19;131835;-56
2023/08/31 00:43:08;;;;;;;1.52;0.70;;;;;;;20.69;49.80;100825.41;16114385;19;130623;-50
2023/08/31 00:48:31;;;;;;;0.93;0.47;;;;;;;20.68;49.81;100823.72;16115460;19;130531;-55
2023/08/31 00:53:54;;;;;;;2.42;0.70;;;;;;;20.67;49.55;100820.13;16111184;19;131280;-54
2023/08/31 00:59:16;;;;;;;3.22;0.70;;;;;;;20.68;49.50;100826.50;16119223;19;129879;-58
2023/08/31 01:04:51;;;;;;;1.70;0.65;;;;;;;20.67;49.57;100824.84;16114525;19;129329;-54
2023/08/31 01:10:36;;;;;;;1.20;0.67;;;;;;;20.68;49.55;100829.28;16118319;19;129999;-54
2023/08/31 01:16:03;;;;;;;0.80;0.30;;;;;;;20.64;49.85;100809.50;16116522;19;131868;-54
2023/08/31 01:21:37;;;;;;;1.90;0.57;;;;;;;20.64;49.91;100801.19;16124616;19;130235;-54
2023/08/31 01:26:59;;;;;;;3.70;0.63;;;;;;;20.62;49.63;100805.31;16113141;19;129972;-57
2023/08/31 01:32:21;;;;;;;1.15;0.47;;;;;;;20.62;49.94;100805.31;16108282;19;133322;-57
2023/08/31 01:37:51;;;;;;;2.92;0.63;;;;;;;20.63;49.56;100815.34;16114635;19;130020;-57
2023/08/31 01:43:14;;;;;;;1.08;0.40;;;;;;;20.60;49.63;100823.09;16106438;19;129254;-57
2023/08/31 01:48:42;;;;;;;1.30;0.50;;;;;;;20.60;50.01;100828.66;16108485;19;131207;-54
2023/08/31 01:54:04;;;;;;;0.88;0.40;;;;;;;20.59;50.25;100834.50;16109792;19;131006;-56
2023/08/31 01:59:27;;;;;;;1.05;0.60;;;;;;;20.58;49.79;100835.59;16110650;19;129707;-52
2023/08/31 02:04:50;;;;;;;2.13;0.50;;;;;;;20.58;49.92;100830.84;16107721;19;131222;-58
2023/08/31 02:10:12;;;;;;;2.33;0.55;;;;;;;20.56;50.08;100841.41;16111175;19;131457;-52
2023/08/31 02:15:37;;;;;;;1.15;0.40;;;;;;;20.55;49.83;100850.84;16104592;19;130535;-55
2023/08/31 02:20:59;;;;;;;1.03;0.40;;;;;;;20.53;49.55;100847.50;16113073;19;130965;-55
2023/08/31 02:26:21;;;;;;;1.85;0.63;;;;;;;20.54;49.88;100854.75;16120301;19;129722;-57
2023/08/31 02:31:45;;;;;;;0.98;0.43;;;;;;;20.53;50.15;100846.66;16124925;19;130950;-56
2023/08/31 02:37:07;;;;;;;0.77;0.40;;;;;;;20.52;50.13;100847.75;16124424;19;130228;-56
2023/08/31 02:42:29;;;;;;;2.15;0.50;;;;;;;20.52;50.30;100851.38;16122300;19;129814;-55
2023/08/31 02:47:51;;;;;;;1.73;0.50;;;;;;;20.51;49.93;100849.69;16124715;19;130500;-53
2023/08/31 02:53:13;;;;;;;2.10;0.60;;;;;;;20.52;49.99;100850.53;16118550;19;131525;-57
2023/08/31 02:58:35;;;;;;;1.00;0.43;;;;;;;20.49;50.08;100849.09;16119546;19;130569;-56
2023/08/31 03:04:01;;;;;;;1.17;0.30;;;;;;;20.48;50.32;100855.75;16120296;19;132348;-57
2023/08/31 03:09:23;;;;;;;1.10;0.40;;;;;;;20.48;50.11;100852.16;16120502;19;130193;-52
2023/08/31 03:14:44;;;;;;;0.55;0.30;;;;;;;20.47;49.93;100842.97;16119279;19;130128;-57
2023/08/31 03:20:07;;;;;;;1.40;0.40;;;;;;;20.47;50.28;100848.53;16115471;19;130260;-56
2023/08/31 03:25:29;;;;;;;1.30;0.40;;;;;;;20.45;49.88;100840.47;16117497;19;130757;-56
2023/08/31 03:30:57;;;;;;;0.43;0.20;;;;;;;20.47;50.04;100854.09;16115083;19;130682;-57
2023/08/31 03:36:19;;;;;;;1.08;0.20;;;;;;;20.44;50.28;100849.91;16111452;19;130640;-57
2023/08/31 03:41:41;;;;;;;0.70;0.25;;;;;;;20.44;49.94;100857.38;16118225;19;129665;-54
2023/08/31 03:47:04;;;;;;;1.05;0.30;;;;;;;20.43;50.15;100856.56;16112008;19;130022;-57
2023/08/31 03:52:26;;;;;;;0.68;0.32;;;;;;;20.42;50.09;100862.38;16115943;19;130087;-55
2023/08/31 03:57:47;;;;;;;0.38;0.20;;;;;;;20.42;50.02;100859.59;16115585;19;130791;-58
2023/08/31 04:03:11;;;;;;;1.67;0.30;;;;;;;20.41;50.18;100869.84;16113726;19;130560;-57
2023/08/31 04:08:34;;;;;;;0.82;0.20;;;;;;;20.41;50.43;100872.63;16115408;19;131805;-57
2023/08/31 04:13:56;;;;;;;0.40;0.30;;;;;;;20.39;50.39;100869.28;16114388;19;130191;-57
2023/08/31 04:19:17;;;;;;;0.40;0.30;;;;;;;20.39;49.94;100876.78;16115680;19;129649;-57
2023/08/31 04:24:39;;;;;;;0.45;0.40;;;;;;;20.39;50.40;100874.84;16116276;19;129656;-57
2023/08/31 04:30:02;;;;;;;1.10;0.40;;;;;;;20.38;50.21;100877.88;16109822;19;130752;-63
2023/08/31 04:35:24;;;;;;;0.85;0.22;;;;;;;20.38;50.11;100887.03;16116453;19;130864;-63
2023/08/31 04:40:46;;;;;;;0.70;0.32;;;;;;;20.39;50.06;100893.47;16117432;19;134195;-61
2023/08/31 04:46:08;;;;;;;1.83;0.57;;;;;;;20.37;49.97;100890.09;16110290;19;130923;-57
2023/08/31 04:51:34;;;;;;;0.28;0.25;;;;;;;20.37;50.43;100898.44;16112100;19;130087;-56
2023/08/31 04:56:56;;;;;;;0.57;0.20;;;;;;;20.36;50.24;100885.63;16115070;19;129375;-56
2023/08/31 05:02:18;;;;;;;0.40;0.30;;;;;;;20.35;50.04;100889.50;16109543;19;129981;-57
2023/08/31 05:07:40;;;;;;;0.40;0.20;;;;;;;20.35;50.27;100897.84;16116095;19;130737;-55
2023/08/31 05:13:04;;;;;;;0.38;0.30;;;;;;;20.34;50.27;100898.94;16112262;19;130280;-56
2023/08/31 05:18:28;;;;;;;15.32;0.73;;;;;;;20.32;50.08;100895.56;16110675;19;130008;-54
2023/08/31 05:23:50;;;;;;;2.60;0.30;;;;;;;20.36;50.05;100907.88;16116478;19;129838;-54
2023/08/31 05:29:12;;;;;;;1.75;0.43;;;;;;;20.43;49.87;100914.91;16120863;19;130026;-59
2023/08/31 05:34:37;;;;;;;2.35;0.75;;;;;;;20.50;50.03;100923.03;16119562;19;131061;-59
2023/08/31 05:39:59;;;;;;;1.58;0.35;;;;;;;20.58;49.61;100925.34;16115660;19;129580;-55
2023/08/31 05:45:21;;;;;;;2.97;0.50;;;;;;;20.64;49.19;100926.25;16114693;19;135069;-54
2023/08/31 05:50:43;;;;;;;4.80;0.45;;;;;;;20.69;49.23;100933.81;16111283;19;129833;-55
2023/08/31 05:56:06;;;;;;;4.03;0.55;;;;;;;20.69;48.83;100933.81;16107014;19;129606;-52
2023/08/31 06:01:28;;;;;;;3.10;0.30;;;;;;;20.73;48.95;100934.97;16106562;19;129771;-57
2023/08/31 06:06:53;;;;;;;0.88;0.52;;;;;;;20.74;48.64;100939.44;16108647;19;130490;-57
2023/08/31 06:12:15;;;;;;;3.22;0.50;;;;;;;20.73;48.93;100938.63;16109293;19;131215;-55
2023/08/31 06:17:37;;;;;;;1.02;0.38;;;;;;;20.75;49.04;100939.19;16110215;19;129744;-52
2023/08/31 06:23:00;;;;;;;4.00;0.57;;;;;;;20.75;48.96;100941.13;16109334;19;129579;-56
2023/08/31 06:28:22;;;;;;;2.63;0.40;;;;;;;20.73;48.72;100946.09;16107573;19;132438;-56
2023/08/31 06:33:44;;;;;;;5.68;0.50;;;;;;;20.71;49.10;100953.84;16107050;19;129507;-57
2023/08/31 06:39:06;;;;;;;3.35;0.50;;;;;;;20.68;48.86;100963.56;16106119;19;130371;-57
2023/08/31 06:44:29;;;;;;;2.90;0.63;;;;;;;20.68;49.04;100966.34;16106311;19;130984;-55
2023/08/31 06:49:51;;;;;;;2.25;0.55;;;;;;;20.67;48.98;100972.19;16103601;19;131022;-56
2023/08/31 06:55:13;;;;;;;3.05;0.52;;;;;;;20.67;48.64;100977.72;16105232;19;130653;-55
2023/08/31 07:00:35;;;;;;;3.80;0.70;;;;;;;20.70;48.40;100979.97;16102014;19;130537;-56
2023/08/31 07:05:57;;;;;;;3.13;0.70;;;;;;;20.70;48.31;100979.97;16107484;19;129833;-55
2023/08/31 07:11:19;;;;;;;7.55;1.00;;;;;;;20.70;48.55;100991.09;16110839;19;129821;-56
2023/08/31 07:16:41;;;;;;;2.78;0.80;;;;;;;20.73;48.45;100985.03;16123374;19;132393;-55
2023/08/31 07:22:06;;;;;;;3.70;0.90;;;;;;;20.80;48.00;100985.69;16121273;19;129233;-55
2023/08/31 07:27:28;;;;;;;2.25;0.95;;;;;;;20.87;47.88;100983.56;16117442;19;130985;-56
2023/08/31 07:32:50;;;;;;;5.03;1.08;;;;;;;20.94;47.41;100985.28;16122572;19;129522;-53
2023/08/31 07:38:12;;;;;;;7.55;1.10;;;;;;;21.00;47.44;100978.69;16115935;19;131795;-54
2023/08/31 07:43:33;;;;;;;3.95;1.30;;;;;;;21.04;47.44;100993.78;16116408;19;131002;-57
2023/08/31 07:48:55;;;;;;;10.30;1.90;;;;;;;21.11;47.04;100997.16;16114294;19;129345;-57
2023/08/31 07:54:21;;;;;;;5.03;1.27;;;;;;;21.17;47.18;100998.06;16117244;19;129584;-58
2023/08/31 07:59:43;;;;;;;8.82;1.40;;;;;;;21.21;47.21;100997.28;16116722;19;130303;-58
2023/08/31 08:05:05;;;;;;;7.45;1.73;;;;;;;21.27;47.11;101002.91;16117109;19;130965;-57
2023/08/31 08:10:27;;;;;;;11.30;1.90;;;;;;;21.30;46.89;101007.91;16120159;19;130794;-57
2023/08/31 08:15:49;;;;;;;8.18;1.38;;;;;;;21.34;47.20;101011.88;16116742;19;129536;-57
2023/08/31 08:21:11;;;;;;;8.75;1.92;;;;;;;21.38;47.17;101013.03;16119193;19;130369;-58
2023/08/31 08:26:33;;;;;;;5.85;1.45;;;;;;;21.44;47.08;101022.28;16115229;19;129781;-56
2023/08/31 08:31:54;;;;;;;5.97;1.63;;;;;;;21.48;46.60;101024.25;16116893;19;129733;-57
2023/08/31 08:37:17;;;;;;;6.65;2.15;;;;;;;21.47;47.01;101028.16;16115399;19;131318;-56
2023/08/31 08:42:41;;;;;;;6.72;1.50;;;;;;;21.47;46.85;101028.16;16114154;19;129567;-57
2023/08/31 08:48:05;;;;;;;5.57;1.25;;;;;;;21.48;46.93;101040.09;16116180;19;130624;-58
2023/08/31 08:53:27;;;;;;;6.55;1.60;;;;;;;21.50;46.60;101038.78;16114303;19;129557;-57
2023/08/31 08:58:49;;;;;;;4.45;1.33;;;;;;;21.49;46.69;101042.69;16117469;19;130439;-55
2023/08/31 09:04:12;;;;;;;6.90;1.50;;;;;;;21.45;46.53;101041.47;16113108;19;129569;-57
2023/08/31 09:09:49;;;;;;;7.45;1.50;;;;;;;21.45;46.50;101047.03;16111639;19;131563;-57
2023/08/31 09:15:11;;;;;;;5.30;1.70;;;;;;;21.42;46.83;101036.44;16119137;19;130410;-57
2023/08/31 09:20:44;;;;;;;5.18;1.45;;;;;;;21.46;46.80;101048.72;16113549;19;129570;-57
2023/08/31 09:26:06;;;;;;;4.18;1.45;;;;;;;21.45;46.80;101047.03;16118874;19;130164;-59
2023/08/31 09:31:30;;;;;;;3.80;1.27;;;;;;;21.42;46.79;101061.47;16113391;19;129239;-57
2023/08/31 09:36:53;;;;;;;5.65;1.33;;;;;;;21.40;47.15;101058.16;16116711;19;129777;-58
2023/08/31 09:42:15;;;;;;;2.75;1.10;;;;;;;21.40;46.95;101058.16;16116718;19;131102;-59
2023/08/31 09:47:37;;;;;;;4.10;1.40;;;;;;;21.40;46.89;101052.59;16116472;19;131079;-57
2023/08/31 09:53:03;;;;;;;1.67;0.98;;;;;;;21.39;47.18;101055.59;16116618;19;129699;-57
2023/08/31 09:58:27;;;;;;;5.25;1.42;;;;;;;21.39;46.88;101058.38;16114980;19;131311;-58
2023/08/31 10:03:51;;;;;;;5.93;1.27;;;;;;;21.39;46.62;101050.91;16112665;19;130428;-56
2023/08/31 10:09:13;;;;;;;2.08;1.20;;;;;;;21.37;46.68;101044.75;16111554;19;130005;-54
2023/08/31 10:14:35;;;;;;;6.40;1.45;;;;;;;21.37;46.50;101050.31;16111626;19;129325;-57
2023/08/31 10:19:58;;;;;;;5.85;1.50;;;;;;;21.39;46.55;101061.16;16113547;19;129409;-54
2023/08/31 10:25:23;;;;;;;5.45;1.95;;;;;;;21.40;45.79;101058.16;16111452;19;129702;-55
2023/08/31 10:31:10;;;;;;;6.93;1.77;;;;;;;21.40;46.04;101054.50;16112737;19;130637;-56
2023/08/31 10:36:44;;;;;;;6.55;1.90;;;;;;;21.40;46.16;101058.16;16112516;19;129629;-56
2023/08/31 10:42:06;;;;;;;4.97;1.60;;;;;;;21.38;46.14;101052.00;16109700;19;133306;-57
2023/08/31 10:47:39;;;;;;;5.38;1.70;;;;;;;21.37;46.10;101051.13;16117158;19;129910;-55
2023/08/31 10:53:09;;;;;;;6.93;1.77;;;;;;;21.33;45.82;101049.16;16126342;19;130399;-58
2023/08/31 10:58:33;;;;;;;4.50;1.60;;;;;;;21.32;45.97;101045.53;16123338;19;129789;-57
2023/08/31 11:03:58;;;;;;;5.85;1.75;;;;;;;21.34;46.33;101046.13;16124722;19;130670;-56
2023/08/31 11:09:21;;;;;;;3.53;1.60;;;;;;;21.32;46.28;101036.34;16125151;19;135985;-53
2023/08/31 11:14:43;;;;;;;3.72;1.98;;;;;;;21.33;45.93;101036.09;16121128;19;130441;-57
2023/08/31 11:20:09;;;;;;;3.63;1.58;;;;;;;21.35;46.08;101035.81;16123528;19;129787;-56
2023/08/31 11:25:31;;;;;;;7.05;1.85;;;;;;;21.33;45.66;101033.31;16127837;19;129380;-57
2023/08/31 11:30:53;;;;;;;4.85;1.67;;;;;;;21.33;45.71;101032.44;16120075;19;130191;-55
2023/08/31 11:36:17;;;;;;;4.22;1.60;;;;;;;21.31;45.65;101031.88;16119682;19;130212;-55
2023/08/31 11:41:42;;;;;;;3.35;1.40;;;;;;;21.30;45.83;101032.97;16122851;19;130038;-55
2023/08/31 11:47:05;;;;;;;4.68;1.70;;;;;;;21.30;45.55;101030.19;16110967;19;130148;-58
2023/08/31 11:52:27;;;;;;;4.72;1.83;;;;;;;21.30;45.36;101024.63;16114967;19;129717;-57
2023/08/31 11:57:56;;;;;;;4.72;1.42;;;;;;;21.29;45.14;101028.53;16115811;19;130736;-56
2023/08/31 12:03:18;;;;;;;3.25;1.45;;;;;;;21.28;45.48;101029.63;16114626;19;131579;-58
2023/08/31 12:08:41;;;;;;;3.47;1.40;;;;;;;21.27;45.50;101028.78;16118031;19;130412;-56
2023/08/31 12:14:17;;;;;;;6.38;1.60;;;;;;;21.25;45.08;101035.72;16120377;19;129571;-57
2023/08/31 12:19:39;;;;;;;3.05;1.30;;;;;;;21.25;45.30;101035.72;16119895;19;131384;-58
2023/08/31 12:25:01;;;;;;;4.20;1.30;;;;;;;21.25;45.29;101030.16;16120616;19;131258;-58
2023/08/31 12:30:25;;;;;;;6.70;1.42;;;;;;;21.25;45.31;101038.50;16120596;19;131093;-50
2023/08/31 12:35:48;;;;;;;5.25;1.40;;;;;;;21.25;45.20;101038.50;16119558;19;131115;-56
2023/08/31 12:41:09;;;;;;;4.97;1.65;;;;;;;21.26;45.07;101026.25;16121528;19;129564;-55
2023/08/31 12:46:32;;;;;;;11.63;2.22;;;;;;;21.28;44.92;101016.53;16114446;19;129683;-56
2023/08/31 12:51:54;;;;;;;4.90;1.55;;;;;;;21.32;44.88;101017.72;16119711;19;130900;-57
2023/08/31 12:57:16;;;;;;;4.68;1.40;;;;;;;21.31;44.96;101007.69;16115578;19;129290;-54
2023/08/31 13:02:39;;;;;;;4.55;1.83;;;;;;;21.35;44.73;101013.56;16116423;19;129437;-56
2023/08/31 13:08:01;;;;;;;3.35;1.30;;;;;;;21.35;44.74;101024.69;16115922;19;134622;-57
2023/08/31 13:13:23;;;;;;;5.10;1.60;;;;;;;21.37;45.03;101016.91;16117918;19;129440;-58
2023/08/31 13:18:45;;;;;;;5.00;1.88;;;;;;;21.36;44.74;101020.81;16115487;19;130654;-58
2023/08/31 13:24:07;;;;;;;5.93;1.98;;;;;;;21.31;44.85;101024.38;16113468;19;130685;-57
2023/08/31 13:29:30;;;;;;;5.57;1.60;;;;;;;21.31;44.78;101020.72;16114649;19;131661;-58
2023/08/31 13:34:53;;;;;;;4.22;1.55;;;;;;;21.29;44.96;101025.75;16114228;19;129097;-60
2023/08/31 13:40:15;;;;;;;3.60;1.40;;;;;;;21.31;44.55;101029.09;16114048;19;130063;-55
2023/08/31 13:45:37;;;;;;;4.55;1.17;;;;;;;21.32;44.56;101027.97;16114064;19;129821;-57
2023/08/31 13:50:59;;;;;;;4.63;1.50;;;;;;;21.34;44.55;101028.56;16109203;19;131239;-57
2023/08/31 13:56:21;;;;;;;3.90;1.80;;;;;;;21.32;44.79;101025.19;16110147;19;132065;-57
2023/08/31 14:01:43;;;;;;;3.22;1.30;;;;;;;21.32;44.51;101037.19;16115852;19;130708;-57
2023/08/31 14:07:05;;;;;;;2.97;1.30;;;;;;;21.31;44.64;101029.94;16111931;19;129284;-58
2023/08/31 14:12:27;;;;;;;4.22;1.33;;;;;;;21.30;44.45;101044.09;16111724;19;129638;-56
2023/08/31 14:17:54;;;;;;;5.50;1.70;;;;;;;21.30;44.71;101035.75;16110807;19;129532;-57
2023/08/31 14:23:16;;;;;;;4.57;1.48;;;;;;;21.29;44.60;101034.09;16108069;19;129669;-51
2023/08/31 14:28:38;;;;;;;4.40;1.30;;;;;;;21.28;44.42;101022.09;16114715;19;129523;-55
2023/08/31 14:34:00;;;;;;;7.10;1.85;;;;;;;21.28;44.17;101019.31;16111450;19;129445;-59
2023/08/31 14:39:24;;;;;;;4.38;1.70;;;;;;;21.27;44.07;101026.00;16112314;19;129328;-59
2023/08/31 14:44:47;;;;;;;5.82;1.40;;;;;;;21.27;43.93;101030.72;16111400;19;132357;-57
2023/08/31 14:50:09;;;;;;;5.50;2.03;;;;;;;21.26;44.38;101032.66;16107398;19;131433;-59
2023/08/31 14:55:31;;;;;;;4.30;1.42;;;;;;;21.27;43.98;101037.13;16107048;19;130549;-56
2023/08/31 15:00:56;;;;;;;3.33;1.48;;;;;;;21.26;44.25;101029.06;16108892;19;130142;-55
2023/08/31 15:06:18;;;;;;;8.57;1.40;;;;;;;21.25;43.88;101030.16;16104089;19;130737;-58
2023/08/31 15:11:40;;;;;;;4.25;1.40;;;;;;;21.24;44.52;101034.03;16107789;19;130193;-58
2023/08/31 15:17:03;;;;;;;6.53;1.73;;;;;;;21.22;44.38;101025.97;16101285;19;130229;-60
2023/08/31 15:22:25;;;;;;;4.75;1.58;;;;;;;21.22;44.18;101031.53;16104910;19;131117;-60
2023/08/31 15:27:46;;;;;;;3.97;1.50;;;;;;;21.21;44.34;101029.84;16105624;19;129923;-59
2023/08/31 15:33:08;;;;;;;5.25;1.60;;;;;;;21.21;44.63;101030.66;16113214;19;129575;-59
2023/08/31 15:38:32;;;;;;;5.75;1.38;;;;;;;21.21;44.46;101039.00;16127472;19;130767;-60
2023/08/31 15:43:54;;;;;;;3.55;1.25;;;;;;;21.21;44.66;101044.56;16119479;19;129748;-63
2023/08/31 15:49:16;;;;;;;4.35;1.50;;;;;;;21.20;44.63;101039.28;16117770;19;130913;-57
2023/08/31 15:54:39;;;;;;;4.28;1.00;;;;;;;21.18;44.33;101042.31;16112168;19;131545;-61
2023/08/31 16:00:05;;;;;;;3.42;1.30;;;;;;;21.18;44.27;101041.47;16110021;19;133368;-63
2023/08/31 16:05:27;;;;;;;4.47;1.30;;;;;;;21.18;44.48;101049.81;16118881;19;129501;-62
2023/08/31 16:10:51;;;;;;;4.18;1.30;;;;;;;21.16;44.62;101044.53;16117065;19;129625;-54
2023/08/31 16:16:12;;;;;;;3.95;1.40;;;;;;;21.15;44.72;101047.56;16114178;19;130939;-62
2023/08/31 16:21:34;;;;;;;5.10;1.60;;;;;;;21.14;44.71;101035.59;16121923;19;129956;-55
2023/08/31 16:26:56;;;;;;;4.47;1.13;;;;;;;21.13;44.82;101039.47;16114410;19;129532;-57
2023/08/31 16:32:19;;;;;;;2.92;1.02;;;;;;;21.14;44.57;101046.72;16116141;19;130388;-56
2023/08/31 16:37:42;;;;;;;3.85;1.58;;;;;;;21.13;45.09;101050.63;16120112;19;130054;-59
2023/08/31 16:43:04;;;;;;;2.80;1.30;;;;;;;21.13;44.66;101050.63;16116151;19;129608;-57
2023/08/31 16:48:27;;;;;;;4.65;1.27;;;;;;;21.13;44.89;101052.53;16114590;19;135021;-56
2023/08/31 16:53:49;;;;;;;6.78;1.35;;;;;;;21.11;44.83;101058.38;16120579;19;129779;-60
2023/08/31 16:59:12;;;;;;;5.95;1.52;;;;;;;21.10;44.88;101065.03;16115765;19;130014;-58
2023/08/31 17:04:34;;;;;;;5.97;1.75;;;;;;;21.10;45.52;101062.25;16112564;19;131453;-56
2023/08/31 17:09:56;;;;;;;12.95;1.52;;;;;;;21.12;45.75;101060.06;16113444;19;130620;-55
2023/08/31 17:15:18;;;;;;;8.88;1.80;;;;;;;21.15;45.79;101056.75;16118462;19;130979;-52
2023/08/31 17:20:41;;;;;;;7.15;1.88;;;;;;;21.16;46.19;101072.34;16112604;19;131139;-58
2023/08/31 17:26:03;;;;;;;13.85;1.90;;;;;;;21.20;45.79;101073.50;16117728;19;130434;-58
2023/08/31 17:31:25;;;;;;;8.68;1.67;;;;;;;21.22;46.14;101076.03;16115326;19;130919;-50
2023/08/31 17:36:47;;;;;;;7.57;1.83;;;;;;;21.26;46.60;101065.22;16037605;19;130901;-59
2023/08/31 17:42:09;;;;;;;19.30;2.13;;;;;;;21.26;46.20;101073.56;16114511;19;130196;-55
2023/08/31 17:47:31;;;;;;;5.45;1.60;;;;;;;21.26;46.28;101068.00;16110782;19;129450;-55
2023/08/31 17:52:53;;;;;;;11.73;1.80;;;;;;;21.24;46.48;101059.91;16108730;19;130954;-56
2023/08/31 17:58:15;;;;;;;4.75;1.83;;;;;;;21.22;46.59;101068.50;16108962;19;130584;-53
2023/08/31 18:03:37;;;;;;;5.88;1.58;;;;;;;21.22;46.58;101076.88;16114946;19;129475;-55
2023/08/31 18:08:59;;;;;;;5.00;1.65;;;;;;;21.20;46.34;101075.44;16110024;19;130830;-55
2023/08/31 18:14:21;;;;;;;5.97;1.27;;;;;;;21.19;46.44;101077.38;16112400;19;131239;-53
2023/08/31 18:19:43;;;;;;;17.63;1.98;;;;;;;21.20;46.92;101078.22;16109484;19;130210;-52
2023/08/31 18:25:06;;;;;;;18.65;3.03;;;;;;;21.21;46.98;101080.75;16098848;19;132383;-50
2023/08/31 18:30:29;;;;;;;17.02;3.22;;;;;;;21.21;46.82;101086.31;16105266;19;130649;-55
2023/08/31 18:35:52;;;;;;;23.38;3.00;;;;;;;21.19;46.80;101077.38;16106548;19;129718;-55
2023/08/31 18:41:14;;;;;;;18.70;2.38;;;;;;;21.16;46.82;101072.34;16103099;19;130779;-54
2023/08/31 18:46:36;;;;;;;16.10;2.47;;;;;;;21.14;46.65;101080.13;16105530;19;132025;-55
2023/08/31 18:51:58;;;;;;;16.40;2.63;;;;;;;21.13;46.56;101089.56;16100971;19;129658;-55
2023/08/31 18:57:20;;;;;;;12.23;2.58;;;;;;;21.11;46.67;101094.53;16106021;19;130215;-54
2023/08/31 19:02:42;;;;;;;14.43;2.38;;;;;;;21.10;46.60;101095.63;16108247;19;131208;-53
2023/08/31 19:08:05;;;;;;;10.70;2.63;;;;;;;21.09;46.75;101104.25;16116719;19;131624;-55
2023/08/31 19:13:29;;;;;;;9.17;2.57;;;;;;;21.07;46.69;101112.84;16123399;19;129763;-59
2023/08/31 19:18:53;;;;;;;18.17;2.53;;;;;;;21.06;46.37;101111.16;16119299;19;129764;-52
2023/08/31 19:24:15;;;;;;;10.55;2.30;;;;;;;21.06;46.77;101119.50;16116108;19;129608;-55
2023/08/31 19:29:37;;;;;;;12.10;2.45;;;;;;;21.03;46.26;101111.69;16115617;19;131028;-56
2023/08/31 19:34:59;;;;;;;9.63;2.00;;;;;;;21.02;46.43;101118.34;16116032;19;129663;-51
2023/08/31 19:40:22;;;;;;;9.57;1.85;;;;;;;21.00;46.72;101126.94;16117466;19;136493;-55
2023/08/31 19:45:45;;;;;;;14.52;2.42;;;;;;;20.99;46.25;101116.06;16116172;19;129373;-54
2023/08/31 19:51:08;;;;;;;13.73;2.65;;;;;;;21.00;46.65;101095.50;16113374;19;131055;-54
2023/08/31 19:56:31;;;;;;;17.17;2.70;;;;;;;21.04;46.62;101096.69;16122202;19;129544;-52
2023/08/31 20:01:53;;;;;;;20.75;2.63;;;;;;;21.07;47.65;101085.03;16118373;19;129370;-55
2023/08/31 20:07:16;;;;;;;14.05;1.92;;;;;;;21.11;47.58;101091.75;16120758;19;129932;-54
2023/08/31 20:12:38;;;;;;;10.75;2.03;;;;;;;21.12;47.33;101093.44;16120307;19;131510;-52
2023/08/31 20:18:00;;;;;;;24.95;2.85;;;;;;;21.14;47.76;101095.94;16122141;19;130204;-54
2023/08/31 20:23:25;;;;;;;12.07;2.42;;;;;;;21.16;47.59;101097.41;16114595;19;129996;-55
2023/08/31 20:28:47;;;;;;;12.93;2.25;;;;;;;21.16;47.65;101085.41;16122371;19;129657;-55
2023/08/31 20:34:11;;;;;;;13.52;2.78;;;;;;;21.18;47.76;101091.56;16116896;19;129782;-56
2023/08/31 20:39:34;;;;;;;20.10;2.65;;;;;;;21.18;48.15;101097.13;16118414;19;130039;-54
2023/08/31 20:44:58;;;;;;;21.60;2.00;;;;;;;21.17;47.76;101090.69;16120493;19;129747;-53
2023/08/31 20:50:23;;;;;;;19.15;2.45;;;;;;;21.18;48.36;101088.78;16113828;19;130766;-53
2023/08/31 20:55:46;;;;;;;12.52;1.92;;;;;;;21.17;48.24;101089.88;16114606;19;129729;-53
2023/08/31 21:01:10;;;;;;;13.57;1.98;;;;;;;21.16;48.45;101099.31;16114753;19;131287;-55
2023/08/31 21:06:33;;;;;;;17.60;2.72;;;;;;;21.15;48.02;101103.19;16111975;19;129762;-55
2023/08/31 21:11:58;;;;;;;22.17;2.53;;;;;;;21.13;48.05;101105.41;16112769;19;129973;-54
2023/08/31 21:17:20;;;;;;;15.20;2.20;;;;;;;21.11;48.39;101108.44;16115502;19;130012;-57
2023/08/31 21:22:43;;;;;;;9.95;1.90;;;;;;;21.09;48.01;101099.50;16116419;19;130279;-58
2023/08/31 21:28:05;;;;;;;12.25;2.47;;;;;;;21.09;48.14;101093.94;16113563;19;128928;-51
2023/08/31 21:33:27;;;;;;;10.70;1.90;;;;;;;21.06;48.09;101097.25;16106563;19;131875;-55
2023/08/31 21:38:52;;;;;;;12.70;1.98;;;;;;;21.04;48.03;101097.50;16112038;19;129758;-53
2023/08/31 21:44:14;;;;;;;11.43;1.60;;;;;;;21.03;48.09;101089.44;16113344;19;129624;-54
2023/08/31 21:49:36;;;;;;;5.80;1.60;;;;;;;21.01;47.86;101091.63;16111217;19;132069;-51
2023/08/31 21:54:58;;;;;;;12.93;1.92;;;;;;;20.98;48.15;101098.56;16109907;19;131365;-55
2023/08/31 22:00:21;;;;;;;7.82;2.08;;;;;;;20.99;47.84;101107.72;16110288;19;131724;-52
2023/08/31 22:05:43;;;;;;;8.50;1.45;;;;;;;20.98;48.10;101106.91;16111764;19;129856;-53
2023/08/31 22:11:06;;;;;;;9.02;1.70;;;;;;;20.96;48.14;101097.97;16108187;19;129689;-53
2023/08/31 22:16:28;;;;;;;7.80;1.65;;;;;;;20.96;48.02;101094.34;16109128;19;130508;-56
2023/08/31 22:21:51;;;;;;;8.10;1.55;;;;;;;20.95;48.16;101093.50;16106275;19;131224;-56
2023/08/31 22:27:16;;;;;;;8.70;1.58;;;;;;;20.94;48.00;101089.03;16100990;19;129315;-53
2023/08/31 22:32:39;;;;;;;11.48;1.98;;;;;;;20.93;48.12;101100.41;16103799;19;129337;-55
2023/08/31 22:38:03;;;;;;;9.07;1.52;;;;;;;20.92;48.17;101095.97;16107370;19;130888;-54
2023/08/31 22:43:25;;;;;;;5.32;1.65;;;;;;;20.89;48.10;101075.91;16119793;19;131750;-56
2023/08/31 22:48:48;;;;;;;6.45;1.52;;;;;;;20.90;48.29;101072.03;16122034;19;131667;-55
2023/08/31 22:54:10;;;;;;;6.63;1.75;;;;;;;20.89;47.78;101084.25;16121648;19;130718;-54
2023/08/31 22:59:35;;;;;;;7.10;1.50;;;;;;;20.89;47.97;101073.13;16117159;19;130713;-53
2023/08/31 23:04:57;;;;;;;;;;;;;;;20.85;48.07;101077.53;16119706;19;129455;-55
2023/08/31 23:10:19;;;;;;;5.97;1.38;;;;;;;20.87;47.96;101074.47;16122182;19;130851;-56
2023/08/31 23:15:54;;;;;;;4.88;1.63;;;;;;;20.85;48.20;101077.53;16118013;19;129418;-54
2023/08/31 23:21:17;;;;;;;6.22;1.20;;;;;;;20.85;48.08;101071.13;16120397;19;130463;-54
2023/08/31 23:26:50;;;;;;;5.45;1.60;;;;;;;20.85;48.23;101068.34;16117648;19;129863;-56
2023/08/31 23:32:12;;;;;;;3.60;1.23;;;;;;;20.84;47.92;101073.06;16117345;19;129534;-55
2023/08/31 23:37:34;;;;;;;7.10;1.52;;;;;;;20.83;47.76;101076.94;16118828;19;130500;-57
2023/08/31 23:42:56;;;;;;;4.13;1.23;;;;;;;20.82;47.73;101055.78;16119270;19;130494;-56
2023/08/31 23:48:18;;;;;;;5.60;1.10;;;;;;;20.82;47.89;101053.00;16112028;19;129166;-56
2023/08/31 23:53:40;;;;;;;4.03;1.35;;;;;;;20.82;48.10;101047.44;16117348;19;129491;-54
2023/08/31 23:59:02;;;;;;;4.65;1.23;;;;;;;20.82;47.82;101041.06;16120071;19;130396;-55
